KGCM

Claremore Regional Airport

Claremore, Oklahoma, USA
METAR KGCM 170535Z AUTO 17006KT 7SM RA SCT065 OVC080 06/05 A3005 RMK AO2 P0005
Observed Flight Rules
Dec-17 @ 05:35 UTC (32 minutes ago) Visual Flight Rules
Wind Visibility Clouds Conditions
170° at 6 knots 7 miles
  • Scattered at 6,500' AGL
  • Overcast at 8,000' AGL
  • Rain
Temperatures Readings Precipitation
Current 6°C / 43°F
Dewpoint 5°C / 41°F
Humidity 93%
Altimeter 30.05" Hg
Pressure 1018 hPa
Elevation 221
Current Rain 0.05
METAR KGCM 170535Z AUTO 17006KT 7SM RA SCT065 OVC080 06/05 A3005 RMK AO2 P0005
Observed Flight Rules
Dec-17 @ 05:35 UTC
(32 minutes ago)
VFR
Wind Visibility
170° at 6 knots 7 miles
Clouds
  • Scattered at 6,500' AGL
  • Overcast at 8,000' AGL
Conditions
  • Rain
Temperature Dewpoint
6°C / 43°F 5°C / 41°F
Humidity Altimeter Pressure
93% 30.05" Hg 1018 hPa
Current Rain
0.05